sensor_id;sensor_type;location;lat;lon;timestamp;temperature;humidity
24518;DHT22;12678;51.336;12.406;2023-12-20T00:00:57;6.60;99.90
24518;DHT22;12678;51.336;12.406;2023-12-20T00:03:23;6.60;99.90
24518;DHT22;12678;51.336;12.406;2023-12-20T00:05:49;6.60;99.90
24518;DHT22;12678;51.336;12.406;2023-12-20T00:08:15;6.50;99.90
24518;DHT22;12678;51.336;12.406;2023-12-20T00:10:41;6.50;99.90
24518;DHT22;12678;51.336;12.406;2023-12-20T00:13:07;6.60;99.90
24518;DHT22;12678;51.336;12.406;2023-12-20T00:15:33;6.50;99.90
24518;DHT22;12678;51.336;12.406;2023-12-20T00:18:00;6.50;99.90
24518;DHT22;12678;51.336;12.406;2023-12-20T00:20:26;6.50;99.90
24518;DHT22;12678;51.336;12.406;2023-12-20T00:22:53;6.50;99.90
24518;DHT22;12678;51.336;12.406;2023-12-20T00:25:19;6.60;99.90
24518;DHT22;12678;51.336;12.406;2023-12-20T00:27:44;6.60;99.90
24518;DHT22;12678;51.336;12.406;2023-12-20T00:30:10;6.50;99.90
24518;DHT22;12678;51.336;12.406;2023-12-20T00:32:36;6.40;99.90
24518;DHT22;12678;51.336;12.406;2023-12-20T00:35:01;6.40;99.90
24518;DHT22;12678;51.336;12.406;2023-12-20T00:37:27;6.40;99.90
24518;DHT22;12678;51.336;12.406;2023-12-20T00:39:52;6.40;99.90
24518;DHT22;12678;51.336;12.406;2023-12-20T00:42:18;6.40;99.90
24518;DHT22;12678;51.336;12.406;2023-12-20T00:44:44;6.40;99.90
24518;DHT22;12678;51.336;12.406;2023-12-20T00:47:10;6.40;99.90
24518;DHT22;12678;51.336;12.406;2023-12-20T00:49:35;6.40;99.90
24518;DHT22;12678;51.336;12.406;2023-12-20T00:52:01;6.40;99.90
24518;DHT22;12678;51.336;12.406;2023-12-20T00:54:26;6.50;99.90
24518;DHT22;12678;51.336;12.406;2023-12-20T00:56:52;6.40;99.90
24518;DHT22;12678;51.336;12.406;2023-12-20T00:59:18;6.40;99.90
24518;DHT22;12678;51.336;12.406;2023-12-20T01:01:44;6.40;99.90
24518;DHT22;12678;51.336;12.406;2023-12-20T01:04:09;6.50;99.90
24518;DHT22;12678;51.336;12.406;2023-12-20T01:06:35;6.40;99.90
24518;DHT22;12678;51.336;12.406;2023-12-20T01:09:00;6.40;99.90
24518;DHT22;12678;51.336;12.406;2023-12-20T01:11:26;6.40;99.90
24518;DHT22;12678;51.336;12.406;2023-12-20T01:13:52;6.40;99.90
24518;DHT22;12678;51.336;12.406;2023-12-20T01:16:17;6.40;99.90
24518;DHT22;12678;51.336;12.406;2023-12-20T01:18:43;6.50;99.90
24518;DHT22;12678;51.336;12.406;2023-12-20T01:21:08;6.40;99.90
24518;DHT22;12678;51.336;12.406;2023-12-20T01:23:34;6.40;99.90
24518;DHT22;12678;51.336;12.406;2023-12-20T01:25:59;6.50;99.90
24518;DHT22;12678;51.336;12.406;2023-12-20T01:28:26;6.50;99.90
24518;DHT22;12678;51.336;12.406;2023-12-20T01:30:51;6.40;99.90
24518;DHT22;12678;51.336;12.406;2023-12-20T01:33:17;6.40;99.90
24518;DHT22;12678;51.336;12.406;2023-12-20T01:35:42;6.40;99.90
24518;DHT22;12678;51.336;12.406;2023-12-20T01:38:09;6.40;99.90
24518;DHT22;12678;51.336;12.406;2023-12-20T01:40:34;6.40;99.90
24518;DHT22;12678;51.336;12.406;2023-12-20T01:43:01;6.40;99.90
24518;DHT22;12678;51.336;12.406;2023-12-20T01:45:27;6.40;99.90
24518;DHT22;12678;51.336;12.406;2023-12-20T01:47:54;6.40;99.90
24518;DHT22;12678;51.336;12.406;2023-12-20T01:50:21;6.40;99.90
24518;DHT22;12678;51.336;12.406;2023-12-20T01:52:46;6.30;99.90
24518;DHT22;12678;51.336;12.406;2023-12-20T01:55:13;6.30;99.90
24518;DHT22;12678;51.336;12.406;2023-12-20T01:57:44;6.40;99.90
24518;DHT22;12678;51.336;12.406;2023-12-20T02:00:11;6.30;99.90
24518;DHT22;12678;51.336;12.406;2023-12-20T02:02:39;6.40;99.90
24518;DHT22;12678;51.336;12.406;2023-12-20T02:05:08;6.30;99.90
24518;DHT22;12678;51.336;12.406;2023-12-20T02:07:34;6.30;99.90
24518;DHT22;12678;51.336;12.406;2023-12-20T02:10:01;6.40;99.90
24518;DHT22;12678;51.336;12.406;2023-12-20T02:12:26;6.40;99.90
24518;DHT22;12678;51.336;12.406;2023-12-20T02:14:52;6.40;99.90
24518;DHT22;12678;51.336;12.406;2023-12-20T02:17:19;6.30;99.90
24518;DHT22;12678;51.336;12.406;2023-12-20T02:19:45;6.40;99.90
24518;DHT22;12678;51.336;12.406;2023-12-20T02:22:11;6.40;99.90
24518;DHT22;12678;51.336;12.406;2023-12-20T02:24:37;6.40;99.90
24518;DHT22;12678;51.336;12.406;2023-12-20T02:27:03;6.40;99.90
24518;DHT22;12678;51.336;12.406;2023-12-20T02:29:30;6.40;99.90
24518;DHT22;12678;51.336;12.406;2023-12-20T02:31:56;6.40;99.90
24518;DHT22;12678;51.336;12.406;2023-12-20T02:34:22;6.30;99.90
24518;DHT22;12678;51.336;12.406;2023-12-20T02:36:47;6.40;99.90
24518;DHT22;12678;51.336;12.406;2023-12-20T02:39:13;6.40;99.90
24518;DHT22;12678;51.336;12.406;2023-12-20T02:41:39;6.30;99.90
24518;DHT22;12678;51.336;12.406;2023-12-20T02:44:04;6.30;99.90
24518;DHT22;12678;51.336;12.406;2023-12-20T02:46:30;6.40;99.90
24518;DHT22;12678;51.336;12.406;2023-12-20T02:48:55;6.40;99.90
24518;DHT22;12678;51.336;12.406;2023-12-20T02:51:21;6.30;99.90
24518;DHT22;12678;51.336;12.406;2023-12-20T02:53:46;6.30;99.90
24518;DHT22;12678;51.336;12.406;2023-12-20T02:56:12;6.30;99.90
24518;DHT22;12678;51.336;12.406;2023-12-20T02:58:39;6.30;99.90
24518;DHT22;12678;51.336;12.406;2023-12-20T03:01:04;6.40;99.90
24518;DHT22;12678;51.336;12.406;2023-12-20T03:03:30;6.40;99.90
24518;DHT22;12678;51.336;12.406;2023-12-20T03:05:55;6.40;99.90
24518;DHT22;12678;51.336;12.406;2023-12-20T03:08:21;6.30;99.90
24518;DHT22;12678;51.336;12.406;2023-12-20T03:10:46;6.30;99.90
24518;DHT22;12678;51.336;12.406;2023-12-20T03:13:12;6.40;99.90
24518;DHT22;12678;51.336;12.406;2023-12-20T03:15:37;6.30;99.90
24518;DHT22;12678;51.336;12.406;2023-12-20T03:18:03;6.30;99.90
24518;DHT22;12678;51.336;12.406;2023-12-20T03:20:28;6.30;99.90
24518;DHT22;12678;51.336;12.406;2023-12-20T03:22:56;6.30;99.90
24518;DHT22;12678;51.336;12.406;2023-12-20T03:25:21;6.30;99.90
24518;DHT22;12678;51.336;12.406;2023-12-20T03:27:47;6.20;99.90
24518;DHT22;12678;51.336;12.406;2023-12-20T03:30:13;6.20;99.90
24518;DHT22;12678;51.336;12.406;2023-12-20T03:32:38;6.20;99.90
24518;DHT22;12678;51.336;12.406;2023-12-20T03:35:04;6.30;99.90
24518;DHT22;12678;51.336;12.406;2023-12-20T03:37:30;6.30;99.90
24518;DHT22;12678;51.336;12.406;2023-12-20T03:39:55;6.30;99.90
24518;DHT22;12678;51.336;12.406;2023-12-20T03:42:21;6.30;99.90
24518;DHT22;12678;51.336;12.406;2023-12-20T03:44:46;6.30;99.90
24518;DHT22;12678;51.336;12.406;2023-12-20T03:47:12;6.30;99.90
24518;DHT22;12678;51.336;12.406;2023-12-20T03:49:37;6.30;99.90
24518;DHT22;12678;51.336;12.406;2023-12-20T03:52:04;6.20;99.90
24518;DHT22;12678;51.336;12.406;2023-12-20T03:54:30;6.20;99.90
24518;DHT22;12678;51.336;12.406;2023-12-20T03:56:55;6.30;99.90
24518;DHT22;12678;51.336;12.406;2023-12-20T03:59:21;6.30;99.90
24518;DHT22;12678;51.336;12.406;2023-12-20T04:01:46;6.30;99.90
24518;DHT22;12678;51.336;12.406;2023-12-20T04:04:13;6.30;99.90
24518;DHT22;12678;51.336;12.406;2023-12-20T04:06:39;6.40;99.90
24518;DHT22;12678;51.336;12.406;2023-12-20T04:09:05;6.40;99.90
24518;DHT22;12678;51.336;12.406;2023-12-20T04:11:30;6.30;99.90
24518;DHT22;12678;51.336;12.406;2023-12-20T04:13:56;6.30;99.90
24518;DHT22;12678;51.336;12.406;2023-12-20T04:16:22;6.40;99.90
24518;DHT22;12678;51.336;12.406;2023-12-20T04:18:47;6.40;99.90
24518;DHT22;12678;51.336;12.406;2023-12-20T04:21:13;6.50;99.90
24518;DHT22;12678;51.336;12.406;2023-12-20T04:23:38;6.50;99.90
24518;DHT22;12678;51.336;12.406;2023-12-20T04:26:04;6.40;99.90
24518;DHT22;12678;51.336;12.406;2023-12-20T04:28:29;6.40;99.90
24518;DHT22;12678;51.336;12.406;2023-12-20T04:30:55;6.50;99.90
24518;DHT22;12678;51.336;12.406;2023-12-20T04:33:21;6.40;99.90
24518;DHT22;12678;51.336;12.406;2023-12-20T04:35:48;6.50;99.90
24518;DHT22;12678;51.336;12.406;2023-12-20T04:38:13;6.50;99.90
24518;DHT22;12678;51.336;12.406;2023-12-20T04:40:39;6.50;99.90
24518;DHT22;12678;51.336;12.406;2023-12-20T04:43:06;6.50;99.90
24518;DHT22;12678;51.336;12.406;2023-12-20T04:45:32;6.50;99.90
24518;DHT22;12678;51.336;12.406;2023-12-20T04:47:57;6.50;99.90
24518;DHT22;12678;51.336;12.406;2023-12-20T04:50:23;6.50;99.90
24518;DHT22;12678;51.336;12.406;2023-12-20T04:52:49;6.50;99.90
24518;DHT22;12678;51.336;12.406;2023-12-20T04:55:14;6.50;99.90
24518;DHT22;12678;51.336;12.406;2023-12-20T04:57:40;6.60;99.90
24518;DHT22;12678;51.336;12.406;2023-12-20T05:00:06;6.60;99.90
24518;DHT22;12678;51.336;12.406;2023-12-20T05:02:34;6.60;99.90
24518;DHT22;12678;51.336;12.406;2023-12-20T05:04:59;6.60;99.90
24518;DHT22;12678;51.336;12.406;2023-12-20T05:07:25;6.70;99.90
24518;DHT22;12678;51.336;12.406;2023-12-20T05:09:50;6.60;99.90
24518;DHT22;12678;51.336;12.406;2023-12-20T05:12:16;6.70;99.90
24518;DHT22;12678;51.336;12.406;2023-12-20T05:14:41;6.70;99.90
24518;DHT22;12678;51.336;12.406;2023-12-20T05:17:07;6.70;99.90
24518;DHT22;12678;51.336;12.406;2023-12-20T05:19:32;6.80;99.90
24518;DHT22;12678;51.336;12.406;2023-12-20T05:22:01;6.70;99.90
24518;DHT22;12678;51.336;12.406;2023-12-20T05:24:26;6.80;99.90
24518;DHT22;12678;51.336;12.406;2023-12-20T05:26:52;6.80;99.90
24518;DHT22;12678;51.336;12.406;2023-12-20T05:29:18;6.70;99.90
24518;DHT22;12678;51.336;12.406;2023-12-20T05:31:43;6.80;99.90
24518;DHT22;12678;51.336;12.406;2023-12-20T05:34:09;6.80;99.90
24518;DHT22;12678;51.336;12.406;2023-12-20T05:36:35;6.80;99.90
24518;DHT22;12678;51.336;12.406;2023-12-20T05:39:00;6.80;99.90
24518;DHT22;12678;51.336;12.406;2023-12-20T05:41:26;6.80;99.90
24518;DHT22;12678;51.336;12.406;2023-12-20T05:43:51;6.80;99.90
24518;DHT22;12678;51.336;12.406;2023-12-20T05:46:17;6.80;99.90
24518;DHT22;12678;51.336;12.406;2023-12-20T05:48:43;6.90;99.90
24518;DHT22;12678;51.336;12.406;2023-12-20T05:51:11;6.90;99.90
24518;DHT22;12678;51.336;12.406;2023-12-20T05:53:37;6.80;99.90
24518;DHT22;12678;51.336;12.406;2023-12-20T05:56:03;6.80;99.90
24518;DHT22;12678;51.336;12.406;2023-12-20T05:58:29;6.80;99.90
24518;DHT22;12678;51.336;12.406;2023-12-20T06:00:55;6.80;99.90
24518;DHT22;12678;51.336;12.406;2023-12-20T06:03:20;6.80;99.90
24518;DHT22;12678;51.336;12.406;2023-12-20T06:05:46;6.90;99.90
24518;DHT22;12678;51.336;12.406;2023-12-20T06:08:11;6.90;99.90
24518;DHT22;12678;51.336;12.406;2023-12-20T06:10:37;6.90;99.90
24518;DHT22;12678;51.336;12.406;2023-12-20T06:13:03;6.90;99.90
24518;DHT22;12678;51.336;12.406;2023-12-20T06:15:30;6.90;99.90
24518;DHT22;12678;51.336;12.406;2023-12-20T06:17:55;6.90;99.90
24518;DHT22;12678;51.336;12.406;2023-12-20T06:20:21;6.80;99.90
24518;DHT22;12678;51.336;12.406;2023-12-20T06:22:46;6.80;99.90
24518;DHT22;12678;51.336;12.406;2023-12-20T06:25:12;6.80;99.90
24518;DHT22;12678;51.336;12.406;2023-12-20T06:27:37;6.70;99.90
24518;DHT22;12678;51.336;12.406;2023-12-20T06:30:04;6.70;99.90
24518;DHT22;12678;51.336;12.406;2023-12-20T06:32:29;6.60;99.90
24518;DHT22;12678;51.336;12.406;2023-12-20T06:34:55;6.60;99.90
24518;DHT22;12678;51.336;12.406;2023-12-20T06:37:21;6.60;99.90
24518;DHT22;12678;51.336;12.406;2023-12-20T06:39:46;6.50;99.90
24518;DHT22;12678;51.336;12.406;2023-12-20T06:42:13;6.40;99.90
24518;DHT22;12678;51.336;12.406;2023-12-20T06:44:38;6.40;99.90
24518;DHT22;12678;51.336;12.406;2023-12-20T06:47:05;6.30;99.90
24518;DHT22;12678;51.336;12.406;2023-12-20T06:49:30;6.30;99.90
24518;DHT22;12678;51.336;12.406;2023-12-20T06:51:56;6.20;99.90
24518;DHT22;12678;51.336;12.406;2023-12-20T06:54:21;6.10;99.90
24518;DHT22;12678;51.336;12.406;2023-12-20T06:56:47;6.10;99.90
24518;DHT22;12678;51.336;12.406;2023-12-20T06:59:12;6.10;99.90
24518;DHT22;12678;51.336;12.406;2023-12-20T07:01:38;6.20;99.90
24518;DHT22;12678;51.336;12.406;2023-12-20T07:04:03;6.20;99.90
24518;DHT22;12678;51.336;12.406;2023-12-20T07:06:29;6.20;99.90
24518;DHT22;12678;51.336;12.406;2023-12-20T07:08:54;6.20;99.90
24518;DHT22;12678;51.336;12.406;2023-12-20T07:11:20;6.30;99.90
24518;DHT22;12678;51.336;12.406;2023-12-20T07:13:45;6.30;99.90
24518;DHT22;12678;51.336;12.406;2023-12-20T07:16:11;6.20;99.90
24518;DHT22;12678;51.336;12.406;2023-12-20T07:18:37;6.30;99.90
24518;DHT22;12678;51.336;12.406;2023-12-20T07:21:03;6.20;99.90
24518;DHT22;12678;51.336;12.406;2023-12-20T07:23:29;6.20;99.90
24518;DHT22;12678;51.336;12.406;2023-12-20T07:25:55;6.20;99.90
24518;DHT22;12678;51.336;12.406;2023-12-20T07:28:21;6.20;99.90
24518;DHT22;12678;51.336;12.406;2023-12-20T07:30:46;6.10;99.90
24518;DHT22;12678;51.336;12.406;2023-12-20T07:33:12;6.20;99.90
24518;DHT22;12678;51.336;12.406;2023-12-20T07:35:37;6.10;99.90
24518;DHT22;12678;51.336;12.406;2023-12-20T07:38:03;6.20;99.90
24518;DHT22;12678;51.336;12.406;2023-12-20T07:40:29;6.20;99.90
24518;DHT22;12678;51.336;12.406;2023-12-20T07:42:54;6.20;99.90
24518;DHT22;12678;51.336;12.406;2023-12-20T07:45:20;6.20;99.90
24518;DHT22;12678;51.336;12.406;2023-12-20T07:47:45;6.30;99.90
24518;DHT22;12678;51.336;12.406;2023-12-20T07:50:11;6.30;99.90
24518;DHT22;12678;51.336;12.406;2023-12-20T07:52:37;6.30;99.90
24518;DHT22;12678;51.336;12.406;2023-12-20T07:55:02;6.40;99.90
24518;DHT22;12678;51.336;12.406;2023-12-20T07:57:29;6.30;99.90
24518;DHT22;12678;51.336;12.406;2023-12-20T07:59:56;6.30;99.90
24518;DHT22;12678;51.336;12.406;2023-12-20T08:02:21;6.20;99.90
24518;DHT22;12678;51.336;12.406;2023-12-20T08:04:47;6.20;99.90
24518;DHT22;12678;51.336;12.406;2023-12-20T08:07:13;6.30;99.90
24518;DHT22;12678;51.336;12.406;2023-12-20T08:09:39;6.40;99.90
24518;DHT22;12678;51.336;12.406;2023-12-20T08:12:05;6.40;99.90
24518;DHT22;12678;51.336;12.406;2023-12-20T08:14:31;6.40;99.90
24518;DHT22;12678;51.336;12.406;2023-12-20T08:16:57;6.40;99.90
24518;DHT22;12678;51.336;12.406;2023-12-20T08:19:22;6.40;99.90
24518;DHT22;12678;51.336;12.406;2023-12-20T08:21:49;6.40;99.90
24518;DHT22;12678;51.336;12.406;2023-12-20T08:24:16;6.40;99.90
24518;DHT22;12678;51.336;12.406;2023-12-20T08:26:41;6.40;99.90
24518;DHT22;12678;51.336;12.406;2023-12-20T08:29:07;6.40;99.90
24518;DHT22;12678;51.336;12.406;2023-12-20T08:31:34;6.40;99.90
24518;DHT22;12678;51.336;12.406;2023-12-20T08:33:59;6.50;99.90
24518;DHT22;12678;51.336;12.406;2023-12-20T08:36:25;6.50;99.90
24518;DHT22;12678;51.336;12.406;2023-12-20T08:38:50;6.50;99.90
24518;DHT22;12678;51.336;12.406;2023-12-20T08:41:17;6.50;99.90
24518;DHT22;12678;51.336;12.406;2023-12-20T08:43:43;6.50;99.90
24518;DHT22;12678;51.336;12.406;2023-12-20T08:46:08;6.60;99.90
24518;DHT22;12678;51.336;12.406;2023-12-20T08:48:37;6.60;99.90
24518;DHT22;12678;51.336;12.406;2023-12-20T08:51:04;6.60;99.90
24518;DHT22;12678;51.336;12.406;2023-12-20T08:53:30;6.80;99.90
24518;DHT22;12678;51.336;12.406;2023-12-20T08:55:55;6.70;99.90
24518;DHT22;12678;51.336;12.406;2023-12-20T08:58:21;6.70;99.90
24518;DHT22;12678;51.336;12.406;2023-12-20T09:00:46;6.80;99.90
24518;DHT22;12678;51.336;12.406;2023-12-20T09:03:12;6.70;99.90
24518;DHT22;12678;51.336;12.406;2023-12-20T09:05:37;6.80;99.90
24518;DHT22;12678;51.336;12.406;2023-12-20T09:08:03;6.80;99.90
24518;DHT22;12678;51.336;12.406;2023-12-20T09:10:29;6.70;99.90
24518;DHT22;12678;51.336;12.406;2023-12-20T09:12:54;6.70;99.90
24518;DHT22;12678;51.336;12.406;2023-12-20T09:15:24;6.70;99.90
24518;DHT22;12678;51.336;12.406;2023-12-20T09:17:50;6.80;99.90
24518;DHT22;12678;51.336;12.406;2023-12-20T09:20:16;6.80;99.90
24518;DHT22;12678;51.336;12.406;2023-12-20T09:22:42;6.80;99.90
24518;DHT22;12678;51.336;12.406;2023-12-20T09:25:09;6.90;99.90
24518;DHT22;12678;51.336;12.406;2023-12-20T09:27:35;6.90;99.90
24518;DHT22;12678;51.336;12.406;2023-12-20T09:30:01;6.90;99.90
24518;DHT22;12678;51.336;12.406;2023-12-20T09:32:27;7.00;99.90
24518;DHT22;12678;51.336;12.406;2023-12-20T09:34:52;7.10;99.90
24518;DHT22;12678;51.336;12.406;2023-12-20T09:37:18;7.10;99.90
24518;DHT22;12678;51.336;12.406;2023-12-20T09:39:43;7.10;99.90
24518;DHT22;12678;51.336;12.406;2023-12-20T09:42:12;7.10;99.90
24518;DHT22;12678;51.336;12.406;2023-12-20T09:44:39;7.20;99.90
24518;DHT22;12678;51.336;12.406;2023-12-20T09:47:08;7.10;99.90
24518;DHT22;12678;51.336;12.406;2023-12-20T09:49:34;7.10;99.90
24518;DHT22;12678;51.336;12.406;2023-12-20T09:52:00;7.10;99.90
24518;DHT22;12678;51.336;12.406;2023-12-20T09:54:28;7.00;99.90
24518;DHT22;12678;51.336;12.406;2023-12-20T09:56:54;7.00;99.90
24518;DHT22;12678;51.336;12.406;2023-12-20T09:59:19;7.00;99.90
24518;DHT22;12678;51.336;12.406;2023-12-20T10:01:45;7.10;99.90
24518;DHT22;12678;51.336;12.406;2023-12-20T10:04:12;7.10;99.90
24518;DHT22;12678;51.336;12.406;2023-12-20T10:06:42;7.10;99.90
24518;DHT22;12678;51.336;12.406;2023-12-20T10:09:09;7.20;99.90
24518;DHT22;12678;51.336;12.406;2023-12-20T10:11:36;7.30;99.90
24518;DHT22;12678;51.336;12.406;2023-12-20T10:14:05;7.30;99.90
24518;DHT22;12678;51.336;12.406;2023-12-20T10:16:32;7.40;99.90
24518;DHT22;12678;51.336;12.406;2023-12-20T10:18:58;7.40;99.90
24518;DHT22;12678;51.336;12.406;2023-12-20T10:21:25;7.50;99.90
24518;DHT22;12678;51.336;12.406;2023-12-20T10:23:54;7.50;99.90
24518;DHT22;12678;51.336;12.406;2023-12-20T10:26:21;7.60;99.90
24518;DHT22;12678;51.336;12.406;2023-12-20T10:28:53;7.60;99.90
24518;DHT22;12678;51.336;12.406;2023-12-20T10:31:45;7.60;99.90
24518;DHT22;12678;51.336;12.406;2023-12-20T10:34:11;7.60;99.90
24518;DHT22;12678;51.336;12.406;2023-12-20T10:36:37;7.50;99.90
24518;DHT22;12678;51.336;12.406;2023-12-20T10:39:03;7.60;99.90
24518;DHT22;12678;51.336;12.406;2023-12-20T10:41:32;7.60;99.90
24518;DHT22;12678;51.336;12.406;2023-12-20T10:44:00;7.60;99.90
24518;DHT22;12678;51.336;12.406;2023-12-20T10:46:27;7.60;99.90
24518;DHT22;12678;51.336;12.406;2023-12-20T10:48:57;7.60;99.90
24518;DHT22;12678;51.336;12.406;2023-12-20T10:51:24;7.60;99.90
24518;DHT22;12678;51.336;12.406;2023-12-20T10:53:52;7.70;99.90
24518;DHT22;12678;51.336;12.406;2023-12-20T10:56:19;7.60;99.90
24518;DHT22;12678;51.336;12.406;2023-12-20T10:58:48;7.70;99.90
24518;DHT22;12678;51.336;12.406;2023-12-20T11:01:15;7.60;99.90
24518;DHT22;12678;51.336;12.406;2023-12-20T11:03:51;7.70;99.90
24518;DHT22;12678;51.336;12.406;2023-12-20T11:08:53;7.90;99.90
24518;DHT22;12678;51.336;12.406;2023-12-20T11:11:35;7.90;99.90
24518;DHT22;12678;51.336;12.406;2023-12-20T11:14:06;8.00;99.90
24518;DHT22;12678;51.336;12.406;2023-12-20T11:16:37;8.10;99.90
24518;DHT22;12678;51.336;12.406;2023-12-20T11:19:06;8.20;99.90
24518;DHT22;12678;51.336;12.406;2023-12-20T11:21:31;8.20;99.90
24518;DHT22;12678;51.336;12.406;2023-12-20T11:23:57;8.20;99.90
24518;DHT22;12678;51.336;12.406;2023-12-20T11:26:26;8.20;99.90
24518;DHT22;12678;51.336;12.406;2023-12-20T11:28:53;8.20;99.90
24518;DHT22;12678;51.336;12.406;2023-12-20T11:31:18;8.20;99.90
24518;DHT22;12678;51.336;12.406;2023-12-20T11:33:44;8.30;99.90
24518;DHT22;12678;51.336;12.406;2023-12-20T11:36:14;8.40;99.90
24518;DHT22;12678;51.336;12.406;2023-12-20T11:39:01;8.30;99.90
24518;DHT22;12678;51.336;12.406;2023-12-20T11:41:34;8.30;99.90
24518;DHT22;12678;51.336;12.406;2023-12-20T11:44:00;8.40;99.90
24518;DHT22;12678;51.336;12.406;2023-12-20T11:46:26;8.40;99.90
24518;DHT22;12678;51.336;12.406;2023-12-20T11:48:52;8.40;99.90
24518;DHT22;12678;51.336;12.406;2023-12-20T11:51:17;8.40;99.90
24518;DHT22;12678;51.336;12.406;2023-12-20T11:53:43;8.20;99.90
24518;DHT22;12678;51.336;12.406;2023-12-20T11:56:09;8.10;99.90
24518;DHT22;12678;51.336;12.406;2023-12-20T11:58:35;8.20;99.90
24518;DHT22;12678;51.336;12.406;2023-12-20T12:01:01;8.10;99.90
24518;DHT22;12678;51.336;12.406;2023-12-20T12:03:32;8.10;99.90
24518;DHT22;12678;51.336;12.406;2023-12-20T12:05:58;8.10;99.90
24518;DHT22;12678;51.336;12.406;2023-12-20T12:08:23;8.10;99.90
24518;DHT22;12678;51.336;12.406;2023-12-20T12:10:49;8.20;99.90
24518;DHT22;12678;51.336;12.406;2023-12-20T12:13:15;8.20;99.90
24518;DHT22;12678;51.336;12.406;2023-12-20T12:15:42;8.10;99.90
24518;DHT22;12678;51.336;12.406;2023-12-20T12:18:07;8.20;99.90
24518;DHT22;12678;51.336;12.406;2023-12-20T12:20:33;8.00;99.90
24518;DHT22;12678;51.336;12.406;2023-12-20T12:23:04;8.00;99.90
24518;DHT22;12678;51.336;12.406;2023-12-20T12:25:30;8.00;99.90
24518;DHT22;12678;51.336;12.406;2023-12-20T12:27:57;8.10;99.90
24518;DHT22;12678;51.336;12.406;2023-12-20T12:30:23;8.10;99.90
24518;DHT22;12678;51.336;12.406;2023-12-20T12:32:48;8.10;99.90
24518;DHT22;12678;51.336;12.406;2023-12-20T12:35:14;8.10;99.90
24518;DHT22;12678;51.336;12.406;2023-12-20T12:37:41;8.20;99.90
24518;DHT22;12678;51.336;12.406;2023-12-20T12:40:14;8.00;99.90
24518;DHT22;12678;51.336;12.406;2023-12-20T12:42:42;8.00;99.90
24518;DHT22;12678;51.336;12.406;2023-12-20T12:45:09;8.10;99.90
24518;DHT22;12678;51.336;12.406;2023-12-20T12:47:35;8.10;99.90
24518;DHT22;12678;51.336;12.406;2023-12-20T12:50:02;8.20;99.90
24518;DHT22;12678;51.336;12.406;2023-12-20T12:52:28;8.20;99.90
24518;DHT22;12678;51.336;12.406;2023-12-20T12:54:54;8.30;99.90
24518;DHT22;12678;51.336;12.406;2023-12-20T12:57:19;8.30;99.90
24518;DHT22;12678;51.336;12.406;2023-12-20T12:59:46;8.30;99.90
24518;DHT22;12678;51.336;12.406;2023-12-20T13:02:15;8.30;99.90
24518;DHT22;12678;51.336;12.406;2023-12-20T13:04:41;8.40;99.90
24518;DHT22;12678;51.336;12.406;2023-12-20T13:07:08;8.40;99.90
24518;DHT22;12678;51.336;12.406;2023-12-20T13:09:36;8.50;99.90
24518;DHT22;12678;51.336;12.406;2023-12-20T13:12:02;8.50;99.90
24518;DHT22;12678;51.336;12.406;2023-12-20T13:14:35;8.30;99.90
24518;DHT22;12678;51.336;12.406;2023-12-20T13:17:02;8.40;99.90
24518;DHT22;12678;51.336;12.406;2023-12-20T13:19:29;8.50;99.90
24518;DHT22;12678;51.336;12.406;2023-12-20T13:21:55;8.50;99.90
24518;DHT22;12678;51.336;12.406;2023-12-20T13:24:21;8.50;99.90
24518;DHT22;12678;51.336;12.406;2023-12-20T13:26:46;8.60;99.90
24518;DHT22;12678;51.336;12.406;2023-12-20T13:29:12;8.50;99.90
24518;DHT22;12678;51.336;12.406;2023-12-20T13:31:38;8.40;99.90
24518;DHT22;12678;51.336;12.406;2023-12-20T13:34:05;8.30;99.90
24518;DHT22;12678;51.336;12.406;2023-12-20T13:36:30;8.30;99.90
24518;DHT22;12678;51.336;12.406;2023-12-20T13:38:56;8.20;99.90
24518;DHT22;12678;51.336;12.406;2023-12-20T13:41:22;8.10;99.90
24518;DHT22;12678;51.336;12.406;2023-12-20T13:43:47;8.10;99.90
24518;DHT22;12678;51.336;12.406;2023-12-20T13:46:13;8.20;99.90
24518;DHT22;12678;51.336;12.406;2023-12-20T13:48:39;8.10;99.90
24518;DHT22;12678;51.336;12.406;2023-12-20T13:51:05;8.10;99.90
24518;DHT22;12678;51.336;12.406;2023-12-20T13:53:31;8.10;99.90
24518;DHT22;12678;51.336;12.406;2023-12-20T13:55:57;8.10;99.90
24518;DHT22;12678;51.336;12.406;2023-12-20T13:58:23;8.10;99.90
24518;DHT22;12678;51.336;12.406;2023-12-20T14:00:48;8.00;99.90
24518;DHT22;12678;51.336;12.406;2023-12-20T14:03:14;8.00;99.90
24518;DHT22;12678;51.336;12.406;2023-12-20T14:05:39;7.90;99.90
24518;DHT22;12678;51.336;12.406;2023-12-20T14:08:06;7.90;99.90
24518;DHT22;12678;51.336;12.406;2023-12-20T14:10:31;7.90;99.90
24518;DHT22;12678;51.336;12.406;2023-12-20T14:12:57;7.90;99.90
24518;DHT22;12678;51.336;12.406;2023-12-20T14:15:22;7.90;99.90
24518;DHT22;12678;51.336;12.406;2023-12-20T14:17:50;8.00;99.90
24518;DHT22;12678;51.336;12.406;2023-12-20T14:20:16;8.00;99.90
24518;DHT22;12678;51.336;12.406;2023-12-20T14:22:42;8.00;99.90
24518;DHT22;12678;51.336;12.406;2023-12-20T14:25:12;8.00;99.90
24518;DHT22;12678;51.336;12.406;2023-12-20T14:27:42;8.00;99.90
24518;DHT22;12678;51.336;12.406;2023-12-20T14:30:13;7.90;99.90
24518;DHT22;12678;51.336;12.406;2023-12-20T14:32:40;7.90;99.90
24518;DHT22;12678;51.336;12.406;2023-12-20T14:35:06;7.90;99.90
24518;DHT22;12678;51.336;12.406;2023-12-20T14:37:32;7.90;99.90
24518;DHT22;12678;51.336;12.406;2023-12-20T14:39:57;7.90;99.90
24518;DHT22;12678;51.336;12.406;2023-12-20T14:42:23;7.90;99.90
24518;DHT22;12678;51.336;12.406;2023-12-20T14:44:49;7.90;99.90
24518;DHT22;12678;51.336;12.406;2023-12-20T14:47:14;7.90;99.90
24518;DHT22;12678;51.336;12.406;2023-12-20T14:49:41;7.80;99.90
24518;DHT22;12678;51.336;12.406;2023-12-20T14:52:08;7.80;99.90
24518;DHT22;12678;51.336;12.406;2023-12-20T14:54:36;7.80;99.90
24518;DHT22;12678;51.336;12.406;2023-12-20T14:57:02;7.80;99.90
24518;DHT22;12678;51.336;12.406;2023-12-20T14:59:28;7.70;99.90
24518;DHT22;12678;51.336;12.406;2023-12-20T15:01:53;7.70;99.90
24518;DHT22;12678;51.336;12.406;2023-12-20T15:04:20;7.70;99.90
24518;DHT22;12678;51.336;12.406;2023-12-20T15:06:51;7.80;99.90
24518;DHT22;12678;51.336;12.406;2023-12-20T15:09:17;7.80;99.90
24518;DHT22;12678;51.336;12.406;2023-12-20T15:11:43;7.90;99.90
24518;DHT22;12678;51.336;12.406;2023-12-20T15:14:08;7.90;99.90
24518;DHT22;12678;51.336;12.406;2023-12-20T15:16:35;8.00;99.90
24518;DHT22;12678;51.336;12.406;2023-12-20T15:19:00;8.00;99.90
24518;DHT22;12678;51.336;12.406;2023-12-20T15:21:26;8.00;99.90
24518;DHT22;12678;51.336;12.406;2023-12-20T15:23:57;7.90;99.90
24518;DHT22;12678;51.336;12.406;2023-12-20T15:26:34;7.90;99.90